Airfield :
LOGIN :

Register | Disclaimer

   EN    FR    IT 

 










Legend :    VFR   Marginal VFR   IFR   Intensive IFR   Very Intensive IFR
Visi :
Ceiling :
>= 8 km
>= 3000ft
5 to 8 km
1000 to 3000 ft
1500m to 5 km
500 to 1000 ft
800 to 1500m
200 to 500 ft
< 800m
< 200 ft
Symbols :   Thunderstorms  Fog  Heavy snow  Heavy precipitations  Wind > 20 kt
SIGMETs :     Misc.  Thunderstorms  Icing  Turbulence  Mountain Waves  Volcanic Ashes







- Airport Elevation : 1768 ft


LEHC - Huesca Pirineos

CURRENT METAR :
  • 250400Z AUTO 11004KT 070V190 4100 RA BR BKN039 BKN046 BKN050 10/10 Q1005

EXPIRED METARs :
  • 250330Z AUTO 09008KT 050V130 9999 -RA BKN049 OVC056 10/10 Q1004
  • 250300Z AUTO 08007KT 030V110 9999 -RA OVC050 10/09 Q1004
  • 250230Z AUTO 07005KT 040V110 9999 -RA OVC050 10/09 Q1004
  • 250200Z AUTO 07005KT 040V110 9999 -RA BKN058 10/09 Q1005
  • 250130Z AUTO 04007KT 020V080 9999 -RA FEW050 BKN067 09/08 Q1005

TAF TAF LEHC
Valid from the 25 at 03:00 until the 26 at 03:00 UTC


250200Z 2503/2603 VRB05KT 9999 BKN030 TX15/2514Z TN07/2506Z
TEMPO 2503/2516 3000 SHRA FEW020TCU
PROB40
TEMPO 2512/2516 3000 TSRA FEW020CB
BECMG 2508/2510 22015KT
TEMPO 2513/2517 22015G25KT
BECMG 2516/2518 VRB04KT
No reported NOTAMs for that airfield.



MET'MAP, your aeronautical weather chart ! - Copyright ORBIFLY December 2007 - Disclaimer

ORBIFLY MET'MAP TEAM :

Programming & Development : Alexandra Zaïnal
Concept & Development : Baudouin d'Aumeries
Co-Development & Prog : Marc-Olivier Méhu
Technical & hardware support : Manuel Goepfert

Contact : metmap@orbifly.com




SOURCES & CREDITS :

   NOAA